Houston, South Dakota
Current Conditions -  °F | °C
As of 10:15 PM on Tuesday 21 Oct 2014 (Local Time) from K9V9 Reporting Station
Clear Clear  
Wind Chill: 64°   Ceiling: Unl
Heat Index: 64°   Visibility: 10mi
Dew Point: 39°   Wind: 14mph
Humidity: 41%   Direction: 150°SSE
Pressure: 29.86"   Gusts: NA
Location:  43.8859°N, 99.8336°W
Report Text: K9V9 220315Z AUTO 15012KT 10SM CLR 18/04 A2986 RMK AO2 T01750039
Loading
Personal Weather Stations






























Interactive Weather Map
Tropical Storm Tracking
New forecast layout! Learn more

10-Day Weather Forecast

Advertisements
Track Severe Weather on mobile